sensor_id;sensor_type;location;lat;lon;timestamp;temperature;humidity
38090;DHT22;23904;52.322;10.232;2022-10-16T00:01:20;14.80;99.90
38090;DHT22;23904;52.322;10.232;2022-10-16T00:03:48;14.80;99.90
38090;DHT22;23904;52.322;10.232;2022-10-16T00:06:15;14.80;99.90
38090;DHT22;23904;52.322;10.232;2022-10-16T00:08:42;14.80;99.90
38090;DHT22;23904;52.322;10.232;2022-10-16T00:11:14;14.80;99.90
38090;DHT22;23904;52.322;10.232;2022-10-16T00:13:42;14.70;99.90
38090;DHT22;23904;52.322;10.232;2022-10-16T00:16:12;14.70;99.90
38090;DHT22;23904;52.322;10.232;2022-10-16T00:18:38;14.60;99.90
38090;DHT22;23904;52.322;10.232;2022-10-16T00:21:13;14.60;99.90
38090;DHT22;23904;52.322;10.232;2022-10-16T00:23:43;14.60;99.90
38090;DHT22;23904;52.322;10.232;2022-10-16T00:26:12;14.60;99.90
38090;DHT22;23904;52.322;10.232;2022-10-16T00:28:39;14.50;99.90
38090;DHT22;23904;52.322;10.232;2022-10-16T00:31:07;14.50;99.90
38090;DHT22;23904;52.322;10.232;2022-10-16T00:33:34;14.50;99.90
38090;DHT22;23904;52.322;10.232;2022-10-16T00:36:01;14.50;99.90
38090;DHT22;23904;52.322;10.232;2022-10-16T00:38:28;14.40;99.90
38090;DHT22;23904;52.322;10.232;2022-10-16T00:40:54;14.40;99.90
38090;DHT22;23904;52.322;10.232;2022-10-16T00:46:03;14.40;99.90
38090;DHT22;23904;52.322;10.232;2022-10-16T00:48:31;14.40;99.90
38090;DHT22;23904;52.322;10.232;2022-10-16T00:50:58;14.40;99.90
38090;DHT22;23904;52.322;10.232;2022-10-16T00:53:25;14.40;99.90
38090;DHT22;23904;52.322;10.232;2022-10-16T00:55:51;14.40;99.90
38090;DHT22;23904;52.322;10.232;2022-10-16T00:58:17;14.40;99.90
38090;DHT22;23904;52.322;10.232;2022-10-16T01:00:42;14.40;99.90
38090;DHT22;23904;52.322;10.232;2022-10-16T01:03:33;14.40;99.90
38090;DHT22;23904;52.322;10.232;2022-10-16T01:06:24;14.40;99.90
38090;DHT22;23904;52.322;10.232;2022-10-16T01:09:10;14.40;99.90
38090;DHT22;23904;52.322;10.232;2022-10-16T01:11:44;14.40;99.90
38090;DHT22;23904;52.322;10.232;2022-10-16T01:14:21;14.40;99.90
38090;DHT22;23904;52.322;10.232;2022-10-16T01:16:58;14.40;99.90
38090;DHT22;23904;52.322;10.232;2022-10-16T01:22:09;14.30;99.90
38090;DHT22;23904;52.322;10.232;2022-10-16T01:24:45;14.30;99.90
38090;DHT22;23904;52.322;10.232;2022-10-16T01:30:12;14.20;99.90
38090;DHT22;23904;52.322;10.232;2022-10-16T01:32:50;14.30;99.90
38090;DHT22;23904;52.322;10.232;2022-10-16T01:35:43;14.30;99.90
38090;DHT22;23904;52.322;10.232;2022-10-16T01:38:25;14.30;99.90
38090;DHT22;23904;52.322;10.232;2022-10-16T01:41:00;14.30;99.90
38090;DHT22;23904;52.322;10.232;2022-10-16T01:43:33;14.30;99.90
38090;DHT22;23904;52.322;10.232;2022-10-16T01:46:01;14.20;99.90
38090;DHT22;23904;52.322;10.232;2022-10-16T01:48:29;14.20;99.90
38090;DHT22;23904;52.322;10.232;2022-10-16T01:51:07;14.20;99.90
38090;DHT22;23904;52.322;10.232;2022-10-16T01:53:34;14.20;99.90
38090;DHT22;23904;52.322;10.232;2022-10-16T01:56:02;14.20;99.90
38090;DHT22;23904;52.322;10.232;2022-10-16T01:58:30;14.20;99.90
38090;DHT22;23904;52.322;10.232;2022-10-16T02:01:02;14.20;99.90
38090;DHT22;23904;52.322;10.232;2022-10-16T02:03:29;14.10;99.90
38090;DHT22;23904;52.322;10.232;2022-10-16T02:05:56;14.20;99.90
38090;DHT22;23904;52.322;10.232;2022-10-16T02:08:25;14.20;99.90
38090;DHT22;23904;52.322;10.232;2022-10-16T02:10:55;14.10;99.90
38090;DHT22;23904;52.322;10.232;2022-10-16T02:13:29;14.20;99.90
38090;DHT22;23904;52.322;10.232;2022-10-16T02:15:58;14.20;99.90
38090;DHT22;23904;52.322;10.232;2022-10-16T02:18:25;14.20;99.90
38090;DHT22;23904;52.322;10.232;2022-10-16T02:21:17;14.20;99.90
38090;DHT22;23904;52.322;10.232;2022-10-16T02:23:50;14.10;99.90
38090;DHT22;23904;52.322;10.232;2022-10-16T02:26:31;14.10;99.90
38090;DHT22;23904;52.322;10.232;2022-10-16T02:29:16;14.20;99.90
38090;DHT22;23904;52.322;10.232;2022-10-16T02:31:47;14.20;99.90
38090;DHT22;23904;52.322;10.232;2022-10-16T02:34:16;14.10;99.90
38090;DHT22;23904;52.322;10.232;2022-10-16T02:36:44;14.10;99.90
38090;DHT22;23904;52.322;10.232;2022-10-16T02:39:11;14.10;99.90
38090;DHT22;23904;52.322;10.232;2022-10-16T02:41:37;14.10;99.90
38090;DHT22;23904;52.322;10.232;2022-10-16T02:44:03;14.00;99.90
38090;DHT22;23904;52.322;10.232;2022-10-16T02:46:29;14.00;99.90
38090;DHT22;23904;52.322;10.232;2022-10-16T02:48:55;14.00;99.90
38090;DHT22;23904;52.322;10.232;2022-10-16T02:51:21;14.00;99.90
38090;DHT22;23904;52.322;10.232;2022-10-16T02:53:47;14.00;99.90
38090;DHT22;23904;52.322;10.232;2022-10-16T02:56:12;13.90;99.90
38090;DHT22;23904;52.322;10.232;2022-10-16T02:58:38;13.90;99.90
38090;DHT22;23904;52.322;10.232;2022-10-16T03:01:04;13.90;99.90
38090;DHT22;23904;52.322;10.232;2022-10-16T03:03:29;13.90;99.90
38090;DHT22;23904;52.322;10.232;2022-10-16T03:05:55;13.90;99.90
38090;DHT22;23904;52.322;10.232;2022-10-16T03:08:20;13.90;99.90
38090;DHT22;23904;52.322;10.232;2022-10-16T03:10:49;13.90;99.90
38090;DHT22;23904;52.322;10.232;2022-10-16T03:13:15;13.80;99.90
38090;DHT22;23904;52.322;10.232;2022-10-16T03:15:41;13.80;99.90
38090;DHT22;23904;52.322;10.232;2022-10-16T03:18:07;13.80;99.90
38090;DHT22;23904;52.322;10.232;2022-10-16T03:20:32;13.70;99.90
38090;DHT22;23904;52.322;10.232;2022-10-16T03:22:58;13.70;99.90
38090;DHT22;23904;52.322;10.232;2022-10-16T03:25:24;13.70;99.90
38090;DHT22;23904;52.322;10.232;2022-10-16T03:27:50;13.70;99.90
38090;DHT22;23904;52.322;10.232;2022-10-16T03:30:17;13.70;99.90
38090;DHT22;23904;52.322;10.232;2022-10-16T03:32:44;13.70;99.90
38090;DHT22;23904;52.322;10.232;2022-10-16T03:35:10;13.60;99.90
38090;DHT22;23904;52.322;10.232;2022-10-16T03:37:36;13.60;99.90
38090;DHT22;23904;52.322;10.232;2022-10-16T03:40:02;13.60;99.90
38090;DHT22;23904;52.322;10.232;2022-10-16T03:42:29;13.50;99.90
38090;DHT22;23904;52.322;10.232;2022-10-16T03:44:54;13.50;99.90
38090;DHT22;23904;52.322;10.232;2022-10-16T03:47:20;13.50;99.90
38090;DHT22;23904;52.322;10.232;2022-10-16T03:49:48;13.50;99.90
38090;DHT22;23904;52.322;10.232;2022-10-16T03:52:14;13.50;99.90
38090;DHT22;23904;52.322;10.232;2022-10-16T03:54:40;13.50;99.90
38090;DHT22;23904;52.322;10.232;2022-10-16T03:57:06;13.60;99.90
38090;DHT22;23904;52.322;10.232;2022-10-16T03:59:31;13.60;99.90
38090;DHT22;23904;52.322;10.232;2022-10-16T04:01:57;13.60;99.90
38090;DHT22;23904;52.322;10.232;2022-10-16T04:04:22;13.60;99.90
38090;DHT22;23904;52.322;10.232;2022-10-16T04:06:50;13.60;99.90
38090;DHT22;23904;52.322;10.232;2022-10-16T04:09:16;13.60;99.90
38090;DHT22;23904;52.322;10.232;2022-10-16T04:11:41;13.60;99.90
38090;DHT22;23904;52.322;10.232;2022-10-16T04:14:07;13.60;99.90
38090;DHT22;23904;52.322;10.232;2022-10-16T04:16:33;13.60;99.90
38090;DHT22;23904;52.322;10.232;2022-10-16T04:18:58;13.60;99.90
38090;DHT22;23904;52.322;10.232;2022-10-16T04:21:24;13.60;99.90
38090;DHT22;23904;52.322;10.232;2022-10-16T04:23:50;13.60;99.90
38090;DHT22;23904;52.322;10.232;2022-10-16T04:26:15;13.50;99.90
38090;DHT22;23904;52.322;10.232;2022-10-16T04:28:41;13.50;99.90
38090;DHT22;23904;52.322;10.232;2022-10-16T04:31:07;13.50;99.90
38090;DHT22;23904;52.322;10.232;2022-10-16T04:33:33;13.40;99.90
38090;DHT22;23904;52.322;10.232;2022-10-16T04:36:01;13.40;99.90
38090;DHT22;23904;52.322;10.232;2022-10-16T04:38:27;13.40;99.90
38090;DHT22;23904;52.322;10.232;2022-10-16T04:40:55;13.40;99.90
38090;DHT22;23904;52.322;10.232;2022-10-16T04:43:21;13.40;99.90
38090;DHT22;23904;52.322;10.232;2022-10-16T04:45:47;13.40;99.90
38090;DHT22;23904;52.322;10.232;2022-10-16T04:48:13;13.50;99.90
38090;DHT22;23904;52.322;10.232;2022-10-16T04:50:39;13.50;99.90
38090;DHT22;23904;52.322;10.232;2022-10-16T04:53:05;13.50;99.90
38090;DHT22;23904;52.322;10.232;2022-10-16T04:55:32;13.40;99.90
38090;DHT22;23904;52.322;10.232;2022-10-16T04:57:58;13.40;99.90
38090;DHT22;23904;52.322;10.232;2022-10-16T05:00:23;13.50;99.90
38090;DHT22;23904;52.322;10.232;2022-10-16T05:02:52;13.50;99.90
38090;DHT22;23904;52.322;10.232;2022-10-16T05:05:18;13.50;99.90
38090;DHT22;23904;52.322;10.232;2022-10-16T05:07:47;13.50;99.90
38090;DHT22;23904;52.322;10.232;2022-10-16T05:10:14;13.50;99.90
38090;DHT22;23904;52.322;10.232;2022-10-16T05:12:40;13.50;99.90
38090;DHT22;23904;52.322;10.232;2022-10-16T05:15:06;13.50;99.90
38090;DHT22;23904;52.322;10.232;2022-10-16T05:17:32;13.50;99.90
38090;DHT22;23904;52.322;10.232;2022-10-16T05:19:58;13.60;99.90
38090;DHT22;23904;52.322;10.232;2022-10-16T05:22:23;13.60;99.90
38090;DHT22;23904;52.322;10.232;2022-10-16T05:24:49;13.60;99.90
38090;DHT22;23904;52.322;10.232;2022-10-16T05:27:14;13.60;99.90
38090;DHT22;23904;52.322;10.232;2022-10-16T05:29:47;13.60;99.90
38090;DHT22;23904;52.322;10.232;2022-10-16T05:32:14;13.60;99.90
38090;DHT22;23904;52.322;10.232;2022-10-16T05:34:40;13.60;99.90
38090;DHT22;23904;52.322;10.232;2022-10-16T05:37:06;13.60;99.90
38090;DHT22;23904;52.322;10.232;2022-10-16T05:39:32;13.60;99.90
38090;DHT22;23904;52.322;10.232;2022-10-16T05:41:58;13.60;99.90
38090;DHT22;23904;52.322;10.232;2022-10-16T05:44:23;13.60;99.90
38090;DHT22;23904;52.322;10.232;2022-10-16T05:46:49;13.60;99.90
38090;DHT22;23904;52.322;10.232;2022-10-16T05:49:15;13.60;99.90
38090;DHT22;23904;52.322;10.232;2022-10-16T05:51:41;13.60;99.90
38090;DHT22;23904;52.322;10.232;2022-10-16T05:54:07;13.60;99.90
38090;DHT22;23904;52.322;10.232;2022-10-16T05:56:35;13.60;99.90
38090;DHT22;23904;52.322;10.232;2022-10-16T05:59:00;13.50;99.90
38090;DHT22;23904;52.322;10.232;2022-10-16T06:01:26;13.50;99.90
38090;DHT22;23904;52.322;10.232;2022-10-16T06:03:52;13.50;99.90
38090;DHT22;23904;52.322;10.232;2022-10-16T06:06:23;13.50;99.90
38090;DHT22;23904;52.322;10.232;2022-10-16T06:08:54;13.60;99.90
38090;DHT22;23904;52.322;10.232;2022-10-16T06:11:23;13.50;99.90
38090;DHT22;23904;52.322;10.232;2022-10-16T06:13:56;13.50;99.90
38090;DHT22;23904;52.322;10.232;2022-10-16T06:16:24;13.50;99.90
38090;DHT22;23904;52.322;10.232;2022-10-16T06:18:51;13.60;99.90
38090;DHT22;23904;52.322;10.232;2022-10-16T06:21:20;13.60;99.90
38090;DHT22;23904;52.322;10.232;2022-10-16T06:23:48;13.60;99.90
38090;DHT22;23904;52.322;10.232;2022-10-16T06:26:16;13.60;99.90
38090;DHT22;23904;52.322;10.232;2022-10-16T06:28:43;13.70;99.90
38090;DHT22;23904;52.322;10.232;2022-10-16T06:31:10;13.80;99.90
38090;DHT22;23904;52.322;10.232;2022-10-16T06:33:37;13.80;99.90
38090;DHT22;23904;52.322;10.232;2022-10-16T06:36:10;13.80;99.90
38090;DHT22;23904;52.322;10.232;2022-10-16T06:38:38;13.80;99.90
38090;DHT22;23904;52.322;10.232;2022-10-16T06:41:05;13.80;99.90
38090;DHT22;23904;52.322;10.232;2022-10-16T06:43:32;13.80;99.90
38090;DHT22;23904;52.322;10.232;2022-10-16T06:46:01;13.80;99.90
38090;DHT22;23904;52.322;10.232;2022-10-16T06:48:28;13.80;99.90
38090;DHT22;23904;52.322;10.232;2022-10-16T06:51:03;13.80;99.90
38090;DHT22;23904;52.322;10.232;2022-10-16T06:53:31;13.80;99.90
38090;DHT22;23904;52.322;10.232;2022-10-16T06:56:10;13.80;99.90
38090;DHT22;23904;52.322;10.232;2022-10-16T06:58:40;13.90;99.90
38090;DHT22;23904;52.322;10.232;2022-10-16T07:01:07;13.80;99.90
38090;DHT22;23904;52.322;10.232;2022-10-16T07:03:36;13.80;99.90
38090;DHT22;23904;52.322;10.232;2022-10-16T07:06:04;13.90;99.90
38090;DHT22;23904;52.322;10.232;2022-10-16T07:08:35;13.90;99.90
38090;DHT22;23904;52.322;10.232;2022-10-16T07:11:05;14.00;99.90
38090;DHT22;23904;52.322;10.232;2022-10-16T07:13:39;14.20;99.90
38090;DHT22;23904;52.322;10.232;2022-10-16T07:16:08;14.30;99.90
38090;DHT22;23904;52.322;10.232;2022-10-16T07:18:35;14.40;99.90
38090;DHT22;23904;52.322;10.232;2022-10-16T07:21:10;14.50;99.90
38090;DHT22;23904;52.322;10.232;2022-10-16T07:23:38;14.70;99.90
38090;DHT22;23904;52.322;10.232;2022-10-16T07:26:04;14.80;99.90
38090;DHT22;23904;52.322;10.232;2022-10-16T07:28:31;14.90;99.90
38090;DHT22;23904;52.322;10.232;2022-10-16T07:31:06;15.00;99.90
38090;DHT22;23904;52.322;10.232;2022-10-16T07:33:37;15.10;99.90
38090;DHT22;23904;52.322;10.232;2022-10-16T07:36:04;15.20;99.90
38090;DHT22;23904;52.322;10.232;2022-10-16T07:38:30;15.30;99.90
38090;DHT22;23904;52.322;10.232;2022-10-16T07:41:11;15.30;99.90
38090;DHT22;23904;52.322;10.232;2022-10-16T07:43:39;15.40;99.90
38090;DHT22;23904;52.322;10.232;2022-10-16T07:46:05;15.50;99.90
38090;DHT22;23904;52.322;10.232;2022-10-16T07:48:33;15.60;99.90
38090;DHT22;23904;52.322;10.232;2022-10-16T07:51:01;15.50;99.90
38090;DHT22;23904;52.322;10.232;2022-10-16T07:53:28;15.50;99.90
38090;DHT22;23904;52.322;10.232;2022-10-16T07:56:05;15.50;99.90
38090;DHT22;23904;52.322;10.232;2022-10-16T07:58:33;15.50;99.90
38090;DHT22;23904;52.322;10.232;2022-10-16T08:01:04;15.70;99.90
38090;DHT22;23904;52.322;10.232;2022-10-16T08:03:31;15.80;99.90
38090;DHT22;23904;52.322;10.232;2022-10-16T08:05:57;16.00;99.90
38090;DHT22;23904;52.322;10.232;2022-10-16T08:08:24;16.20;99.90
38090;DHT22;23904;52.322;10.232;2022-10-16T08:10:49;16.20;99.90
38090;DHT22;23904;52.322;10.232;2022-10-16T08:13:15;16.30;99.90
38090;DHT22;23904;52.322;10.232;2022-10-16T08:15:42;16.20;99.90
38090;DHT22;23904;52.322;10.232;2022-10-16T08:18:09;16.20;99.90
38090;DHT22;23904;52.322;10.232;2022-10-16T08:20:36;16.20;99.90
38090;DHT22;23904;52.322;10.232;2022-10-16T08:23:02;16.30;99.90
38090;DHT22;23904;52.322;10.232;2022-10-16T08:25:28;16.30;99.90
38090;DHT22;23904;52.322;10.232;2022-10-16T08:27:54;16.30;99.90
38090;DHT22;23904;52.322;10.232;2022-10-16T08:30:22;16.40;99.90
38090;DHT22;23904;52.322;10.232;2022-10-16T08:32:48;16.40;99.90
38090;DHT22;23904;52.322;10.232;2022-10-16T08:35:15;16.30;99.90
38090;DHT22;23904;52.322;10.232;2022-10-16T08:37:41;16.40;99.90
38090;DHT22;23904;52.322;10.232;2022-10-16T08:40:20;16.40;99.90
38090;DHT22;23904;52.322;10.232;2022-10-16T08:43:19;16.50;99.90
38090;DHT22;23904;52.322;10.232;2022-10-16T08:51:37;16.60;99.90
38090;DHT22;23904;52.322;10.232;2022-10-16T08:54:05;16.70;99.90
38090;DHT22;23904;52.322;10.232;2022-10-16T08:56:36;16.90;99.90
38090;DHT22;23904;52.322;10.232;2022-10-16T08:59:03;17.00;99.90
38090;DHT22;23904;52.322;10.232;2022-10-16T09:01:40;17.10;99.90
38090;DHT22;23904;52.322;10.232;2022-10-16T09:04:49;17.30;99.90
38090;DHT22;23904;52.322;10.232;2022-10-16T09:07:28;17.40;99.90
38090;DHT22;23904;52.322;10.232;2022-10-16T09:13:12;17.60;99.90
38090;DHT22;23904;52.322;10.232;2022-10-16T09:15:40;17.50;99.90
38090;DHT22;23904;52.322;10.232;2022-10-16T09:18:24;17.70;99.90
38090;DHT22;23904;52.322;10.232;2022-10-16T09:21:08;17.70;99.90
38090;DHT22;23904;52.322;10.232;2022-10-16T09:23:38;17.80;99.90
38090;DHT22;23904;52.322;10.232;2022-10-16T09:26:05;18.10;99.90
38090;DHT22;23904;52.322;10.232;2022-10-16T09:28:36;18.30;99.90
38090;DHT22;23904;52.322;10.232;2022-10-16T09:31:01;18.40;99.90
38090;DHT22;23904;52.322;10.232;2022-10-16T09:33:36;18.40;99.90
38090;DHT22;23904;52.322;10.232;2022-10-16T09:36:05;18.60;99.90
38090;DHT22;23904;52.322;10.232;2022-10-16T09:38:35;18.80;99.90
38090;DHT22;23904;52.322;10.232;2022-10-16T09:41:21;19.10;99.90
38090;DHT22;23904;52.322;10.232;2022-10-16T09:43:53;19.80;99.90
38090;DHT22;23904;52.322;10.232;2022-10-16T09:46:34;21.30;99.90
38090;DHT22;23904;52.322;10.232;2022-10-16T09:49:20;22.70;99.90
38090;DHT22;23904;52.322;10.232;2022-10-16T09:51:46;24.30;97.70
38090;DHT22;23904;52.322;10.232;2022-10-16T09:54:15;25.00;95.40
38090;DHT22;23904;52.322;10.232;2022-10-16T09:56:45;26.40;91.70
38090;DHT22;23904;52.322;10.232;2022-10-16T09:59:16;27.90;86.90
38090;DHT22;23904;52.322;10.232;2022-10-16T10:01:51;29.00;80.30
38090;DHT22;23904;52.322;10.232;2022-10-16T10:04:23;29.00;77.20
38090;DHT22;23904;52.322;10.232;2022-10-16T10:06:51;29.10;72.70
38090;DHT22;23904;52.322;10.232;2022-10-16T10:09:23;28.00;74.60
38090;DHT22;23904;52.322;10.232;2022-10-16T10:22:40;28.40;72.20
38090;DHT22;23904;52.322;10.232;2022-10-16T10:36:38;27.10;73.20
38090;DHT22;23904;52.322;10.232;2022-10-16T10:56:14;21.70;90.50
38090;DHT22;23904;52.322;10.232;2022-10-16T11:01:45;20.50;92.60
38090;DHT22;23904;52.322;10.232;2022-10-16T11:04:49;20.10;93.60
38090;DHT22;23904;52.322;10.232;2022-10-16T11:07:20;19.70;94.10
38090;DHT22;23904;52.322;10.232;2022-10-16T11:10:02;19.60;95.00
38090;DHT22;23904;52.322;10.232;2022-10-16T11:12:40;19.50;95.70
38090;DHT22;23904;52.322;10.232;2022-10-16T11:15:18;19.80;95.00
38090;DHT22;23904;52.322;10.232;2022-10-16T11:17:59;19.80;95.20
38090;DHT22;23904;52.322;10.232;2022-10-16T11:20:56;19.90;94.80
38090;DHT22;23904;52.322;10.232;2022-10-16T11:26:04;20.50;94.00
38090;DHT22;23904;52.322;10.232;2022-10-16T11:28:51;21.20;93.30
38090;DHT22;23904;52.322;10.232;2022-10-16T11:31:41;22.90;91.60
38090;DHT22;23904;52.322;10.232;2022-10-16T11:36:49;25.40;84.10
38090;DHT22;23904;52.322;10.232;2022-10-16T11:39:28;26.20;80.90
38090;DHT22;23904;52.322;10.232;2022-10-16T11:42:22;27.00;75.90
38090;DHT22;23904;52.322;10.232;2022-10-16T11:48:00;29.10;69.10
38090;DHT22;23904;52.322;10.232;2022-10-16T11:56:25;32.10;58.30
38090;DHT22;23904;52.322;10.232;2022-10-16T11:59:08;30.90;58.70
38090;DHT22;23904;52.322;10.232;2022-10-16T12:01:54;29.60;59.90
38090;DHT22;23904;52.322;10.232;2022-10-16T12:04:33;28.40;61.90
38090;DHT22;23904;52.322;10.232;2022-10-16T12:07:08;26.20;67.80
38090;DHT22;23904;52.322;10.232;2022-10-16T12:09:40;24.40;72.90
38090;DHT22;23904;52.322;10.232;2022-10-16T12:12:26;24.00;74.10
38090;DHT22;23904;52.322;10.232;2022-10-16T12:15:26;23.00;78.60
38090;DHT22;23904;52.322;10.232;2022-10-16T12:17:53;22.60;78.20
38090;DHT22;23904;52.322;10.232;2022-10-16T12:22:54;21.30;84.10
38090;DHT22;23904;52.322;10.232;2022-10-16T12:25:28;21.00;84.00
38090;DHT22;23904;52.322;10.232;2022-10-16T12:30:42;20.70;86.20
38090;DHT22;23904;52.322;10.232;2022-10-16T12:33:29;20.50;86.60
38090;DHT22;23904;52.322;10.232;2022-10-16T12:35:58;20.40;87.90
38090;DHT22;23904;52.322;10.232;2022-10-16T12:38:49;20.50;86.90
38090;DHT22;23904;52.322;10.232;2022-10-16T12:41:33;20.20;88.10
38090;DHT22;23904;52.322;10.232;2022-10-16T12:44:01;20.10;88.20
38090;DHT22;23904;52.322;10.232;2022-10-16T12:51:40;19.90;90.00
38090;DHT22;23904;52.322;10.232;2022-10-16T12:54:17;19.80;90.00
38090;DHT22;23904;52.322;10.232;2022-10-16T13:05:00;19.80;91.00
38090;DHT22;23904;52.322;10.232;2022-10-16T13:11:17;19.80;91.00
38090;DHT22;23904;52.322;10.232;2022-10-16T13:15:00;19.70;91.00
38090;DHT22;23904;52.322;10.232;2022-10-16T13:17:22;19.80;91.30
38090;DHT22;23904;52.322;10.232;2022-10-16T13:20:03;19.90;90.90
38090;DHT22;23904;52.322;10.232;2022-10-16T13:28:13;19.80;90.30
38090;DHT22;23904;52.322;10.232;2022-10-16T13:30:41;19.80;90.70
38090;DHT22;23904;52.322;10.232;2022-10-16T13:33:21;19.60;91.60
38090;DHT22;23904;52.322;10.232;2022-10-16T13:35:55;19.70;91.10
38090;DHT22;23904;52.322;10.232;2022-10-16T13:38:23;19.60;91.70
38090;DHT22;23904;52.322;10.232;2022-10-16T13:40:52;19.60;91.80
38090;DHT22;23904;52.322;10.232;2022-10-16T13:43:20;19.80;91.30
38090;DHT22;23904;52.322;10.232;2022-10-16T13:49:05;19.80;91.10
38090;DHT22;23904;52.322;10.232;2022-10-16T13:51:37;19.80;91.50
38090;DHT22;23904;52.322;10.232;2022-10-16T13:54:03;19.60;91.60
38090;DHT22;23904;52.322;10.232;2022-10-16T13:56:31;19.70;90.70
38090;DHT22;23904;52.322;10.232;2022-10-16T13:59:23;19.80;90.60
38090;DHT22;23904;52.322;10.232;2022-10-16T14:01:55;19.80;91.00
38090;DHT22;23904;52.322;10.232;2022-10-16T14:04:22;19.70;90.60
38090;DHT22;23904;52.322;10.232;2022-10-16T14:06:50;19.60;91.00
38090;DHT22;23904;52.322;10.232;2022-10-16T14:09:26;19.60;91.20
38090;DHT22;23904;52.322;10.232;2022-10-16T14:11:57;19.50;92.00
38090;DHT22;23904;52.322;10.232;2022-10-16T14:14:27;19.50;92.30
38090;DHT22;23904;52.322;10.232;2022-10-16T14:16:58;19.40;93.00
38090;DHT22;23904;52.322;10.232;2022-10-16T14:19:26;19.30;92.70
38090;DHT22;23904;52.322;10.232;2022-10-16T14:21:53;19.30;92.40
38090;DHT22;23904;52.322;10.232;2022-10-16T14:24:26;19.20;92.30
38090;DHT22;23904;52.322;10.232;2022-10-16T14:26:56;19.30;91.60
38090;DHT22;23904;52.322;10.232;2022-10-16T14:29:24;19.30;91.50
38090;DHT22;23904;52.322;10.232;2022-10-16T14:34:29;19.40;91.50
38090;DHT22;23904;52.322;10.232;2022-10-16T14:37:22;19.30;91.40
38090;DHT22;23904;52.322;10.232;2022-10-16T14:39:51;19.30;91.50
38090;DHT22;23904;52.322;10.232;2022-10-16T14:42:19;19.30;91.40
38090;DHT22;23904;52.322;10.232;2022-10-16T14:44:48;19.30;91.40
38090;DHT22;23904;52.322;10.232;2022-10-16T14:47:19;19.30;91.50
38090;DHT22;23904;52.322;10.232;2022-10-16T14:49:52;19.30;91.50
38090;DHT22;23904;52.322;10.232;2022-10-16T14:52:21;19.30;91.90
38090;DHT22;23904;52.322;10.232;2022-10-16T14:54:50;19.30;91.90
38090;DHT22;23904;52.322;10.232;2022-10-16T14:57:22;19.20;92.20
38090;DHT22;23904;52.322;10.232;2022-10-16T14:59:49;19.20;92.40
38090;DHT22;23904;52.322;10.232;2022-10-16T15:02:32;19.20;92.40
38090;DHT22;23904;52.322;10.232;2022-10-16T15:05:26;19.20;92.30
38090;DHT22;23904;52.322;10.232;2022-10-16T15:07:53;19.20;92.70
38090;DHT22;23904;52.322;10.232;2022-10-16T15:10:21;19.20;92.90
38090;DHT22;23904;52.322;10.232;2022-10-16T15:12:48;19.10;92.90
38090;DHT22;23904;52.322;10.232;2022-10-16T15:17:55;18.90;93.60
38090;DHT22;23904;52.322;10.232;2022-10-16T15:20:24;18.90;93.40
38090;DHT22;23904;52.322;10.232;2022-10-16T15:22:50;18.90;93.30
38090;DHT22;23904;52.322;10.232;2022-10-16T15:27:57;18.90;93.50
38090;DHT22;23904;52.322;10.232;2022-10-16T15:30:24;18.90;93.50
38090;DHT22;23904;52.322;10.232;2022-10-16T15:32:49;18.90;93.70
38090;DHT22;23904;52.322;10.232;2022-10-16T15:35:15;18.80;93.70
38090;DHT22;23904;52.322;10.232;2022-10-16T15:37:41;18.80;93.80
38090;DHT22;23904;52.322;10.232;2022-10-16T15:40:08;18.70;93.90
38090;DHT22;23904;52.322;10.232;2022-10-16T15:42:35;18.70;94.10
38090;DHT22;23904;52.322;10.232;2022-10-16T15:45:02;18.60;94.50
38090;DHT22;23904;52.322;10.232;2022-10-16T15:47:29;18.50;94.80
38090;DHT22;23904;52.322;10.232;2022-10-16T15:49:54;18.40;95.90
38090;DHT22;23904;52.322;10.232;2022-10-16T15:52:20;18.30;96.00
38090;DHT22;23904;52.322;10.232;2022-10-16T15:54:46;18.20;96.30
38090;DHT22;23904;52.322;10.232;2022-10-16T15:57:11;18.10;96.50
38090;DHT22;23904;52.322;10.232;2022-10-16T15:59:37;18.00;96.70
38090;DHT22;23904;52.322;10.232;2022-10-16T16:02:03;18.00;97.10
38090;DHT22;23904;52.322;10.232;2022-10-16T16:04:32;17.80;97.40
38090;DHT22;23904;52.322;10.232;2022-10-16T16:06:57;17.80;97.50
38090;DHT22;23904;52.322;10.232;2022-10-16T16:09:23;17.70;97.60
38090;DHT22;23904;52.322;10.232;2022-10-16T16:11:49;17.70;98.20
38090;DHT22;23904;52.322;10.232;2022-10-16T16:14:16;17.60;98.50
38090;DHT22;23904;52.322;10.232;2022-10-16T16:16:42;17.50;98.80
38090;DHT22;23904;52.322;10.232;2022-10-16T16:19:08;17.40;99.00
38090;DHT22;23904;52.322;10.232;2022-10-16T16:21:34;17.40;99.30
38090;DHT22;23904;52.322;10.232;2022-10-16T16:24:00;17.30;99.60
38090;DHT22;23904;52.322;10.232;2022-10-16T16:26:33;17.20;99.90
38090;DHT22;23904;52.322;10.232;2022-10-16T16:29:02;17.20;99.90
38090;DHT22;23904;52.322;10.232;2022-10-16T16:31:30;17.10;99.90
38090;DHT22;23904;52.322;10.232;2022-10-16T16:33:57;17.00;99.90
38090;DHT22;23904;52.322;10.232;2022-10-16T16:36:24;17.00;99.90
38090;DHT22;23904;52.322;10.232;2022-10-16T16:38:50;17.00;99.90
38090;DHT22;23904;52.322;10.232;2022-10-16T16:41:22;16.90;99.90
38090;DHT22;23904;52.322;10.232;2022-10-16T16:43:51;16.90;99.90
38090;DHT22;23904;52.322;10.232;2022-10-16T16:46:17;16.80;99.90
38090;DHT22;23904;52.322;10.232;2022-10-16T16:48:44;16.80;99.90
38090;DHT22;23904;52.322;10.232;2022-10-16T16:51:12;16.70;99.90
38090;DHT22;23904;52.322;10.232;2022-10-16T16:53:45;16.70;99.90
38090;DHT22;23904;52.322;10.232;2022-10-16T16:56:12;16.70;99.90
38090;DHT22;23904;52.322;10.232;2022-10-16T16:58:39;16.60;99.90
38090;DHT22;23904;52.322;10.232;2022-10-16T17:01:05;16.60;99.90
38090;DHT22;23904;52.322;10.232;2022-10-16T17:03:32;16.50;99.90
38090;DHT22;23904;52.322;10.232;2022-10-16T17:06:05;16.40;99.90
38090;DHT22;23904;52.322;10.232;2022-10-16T17:08:33;16.40;99.90
38090;DHT22;23904;52.322;10.232;2022-10-16T17:11:00;16.30;99.90
38090;DHT22;23904;52.322;10.232;2022-10-16T17:13:27;16.30;99.90
38090;DHT22;23904;52.322;10.232;2022-10-16T17:15:54;16.30;99.90
38090;DHT22;23904;52.322;10.232;2022-10-16T17:18:22;16.30;99.90
38090;DHT22;23904;52.322;10.232;2022-10-16T17:20:49;16.30;99.90
38090;DHT22;23904;52.322;10.232;2022-10-16T17:23:17;16.30;99.90
38090;DHT22;23904;52.322;10.232;2022-10-16T17:25:44;16.40;99.90
38090;DHT22;23904;52.322;10.232;2022-10-16T17:28:11;16.40;99.90